Time;durP1;ratioP1;P1;durP2;ratioP2;P2;SDS_P1;SDS_P2;PMS_P1;PMS_P2;Temp;Humidity;BMP_temperature;BMP_pressure;BME280_temperature;BME280_humidity;BME280_pressure;Samples;Min_cycle;Max_cycle;Signal;HPM_P1;HPM_P2
2022/04/27 00:00:28;;;;;;;5.95;1.70;;;;;;;12.18;61.92;99007.56;4975642;28;20035;-59
2022/04/27 00:02:56;;;;;;;5.68;2.00;;;;;;;12.17;60.94;99001.53;4955450;29;20086;-59
2022/04/27 00:05:23;;;;;;;3.58;1.92;;;;;;;12.25;61.46;99007.25;4975856;28;20074;-59
2022/04/27 00:07:48;;;;;;;3.47;1.73;;;;;;;12.26;60.75;99016.72;4995300;28;20034;-59
2022/04/27 00:10:14;;;;;;;1.63;1.48;;;;;;;12.15;61.89;99018.91;4995321;28;20126;-59
2022/04/27 00:12:40;;;;;;;4.85;1.77;;;;;;;12.17;61.33;99026.63;4995541;28;20030;-59
2022/04/27 00:15:07;;;;;;;1.88;1.50;;;;;;;12.15;61.85;99031.03;4995158;28;20049;-59
2022/04/27 00:17:33;;;;;;;3.22;1.90;;;;;;;12.19;61.60;99043.84;4977090;28;20392;-59
2022/04/27 00:19:59;;;;;;;2.60;1.60;;;;;;;12.14;62.22;99038.00;4995012;28;20061;-59
2022/04/27 00:22:25;;;;;;;2.17;1.80;;;;;;;12.14;62.72;99040.59;4995181;28;20055;-59
2022/04/27 00:24:50;;;;;;;4.18;1.77;;;;;;;12.06;61.71;99045.22;5014106;28;20458;-59
2022/04/27 00:27:16;;;;;;;2.90;1.73;;;;;;;11.98;62.89;99047.25;4995406;28;20081;-59
2022/04/27 00:29:42;;;;;;;2.20;1.73;;;;;;;11.77;63.10;99051.44;4985348;28;20066;-59
2022/04/27 00:32:07;;;;;;;2.30;1.67;;;;;;;11.80;62.90;99049.59;4994745;28;20049;-59
2022/04/27 00:34:33;;;;;;;4.35;1.70;;;;;;;11.80;63.01;99053.94;4994817;28;20468;-59
2022/04/27 00:36:58;;;;;;;2.67;1.52;;;;;;;11.83;63.67;99065.06;4977343;28;20022;-59
2022/04/27 00:39:24;;;;;;;2.47;1.65;;;;;;;11.79;63.05;99058.28;4994759;28;20038;-59
2022/04/27 00:42:00;;;;;;;1.77;1.65;;;;;;;11.62;64.07;99060.66;4994630;28;20035;-58
2022/04/27 00:44:32;;;;;;;1.48;1.38;;;;;;;11.27;63.95;99013.47;4994736;28;20038;-58
2022/04/27 00:47:01;;;;;;;2.22;1.52;;;;;;;11.65;64.31;99074.34;4994640;28;20041;-58
2022/04/27 00:49:28;;;;;;;2.28;1.75;;;;;;;11.64;63.57;99069.22;4994828;28;20569;-58
2022/04/27 00:51:54;;;;;;;4.32;1.88;;;;;;;11.58;63.85;99080.66;4994569;28;20475;-59
2022/04/27 00:54:22;;;;;;;4.03;1.60;;;;;;;11.55;64.12;99071.22;4994492;28;20022;-59
2022/04/27 00:56:51;;;;;;;3.67;1.60;;;;;;;11.53;65.12;99069.59;4994384;28;20033;-58
2022/04/27 00:59:18;;;;;;;2.67;2.00;;;;;;;11.51;65.10;99063.63;4994336;28;20042;-58
2022/04/27 01:01:44;;;;;;;3.65;1.77;;;;;;;11.42;64.53;99069.97;4994456;28;20057;-58
2022/04/27 01:04:09;;;;;;;4.38;2.20;;;;;;;11.39;64.82;99065.72;4991974;28;20045;-59
2022/04/27 01:06:36;;;;;;;1.80;1.70;;;;;;;11.48;65.19;99079.28;4974405;28;20038;-58
2022/04/27 01:09:02;;;;;;;3.17;1.65;;;;;;;11.46;64.76;99065.50;4974724;28;20133;-59
2022/04/27 01:11:28;;;;;;;2.85;1.95;;;;;;;11.45;65.03;99069.84;4974760;28;20026;-59
2022/04/27 01:13:53;;;;;;;2.45;2.00;;;;;;;11.30;64.94;99072.97;4977508;28;20037;-58
2022/04/27 01:16:19;;;;;;;2.72;1.90;;;;;;;11.24;65.31;99068.84;4994070;28;20042;-58
2022/04/27 01:18:45;;;;;;;2.92;1.83;;;;;;;11.27;65.20;99060.13;4976149;28;20027;-58
2022/04/27 01:21:12;;;;;;;16.20;2.50;;;;;;;11.18;65.80;99067.31;4980495;28;20027;-58
2022/04/27 01:23:39;;;;;;;5.25;1.80;;;;;;;11.18;65.57;99069.06;4974411;28;20480;-59
2022/04/27 01:26:07;;;;;;;4.97;2.20;;;;;;;11.10;65.64;99061.56;4974407;28;20531;-59
2022/04/27 01:28:36;;;;;;;3.20;1.83;;;;;;;10.78;65.50;99016.84;4959792;28;20035;-59
2022/04/27 01:31:04;;;;;;;3.60;1.83;;;;;;;10.86;66.00;99020.03;4973135;28;20381;-59
2022/04/27 01:33:31;;;;;;;2.20;1.60;;;;;;;11.02;66.33;99054.03;4958400;28;20086;-58
2022/04/27 01:35:58;;;;;;;2.47;1.88;;;;;;;11.11;66.39;99068.41;4955503;28;20027;-58
2022/04/27 01:38:24;;;;;;;3.80;2.03;;;;;;;11.02;66.20;99068.75;4961831;28;20026;-58
2022/04/27 01:40:54;;;;;;;3.08;1.80;;;;;;;10.73;66.50;99017.88;4971989;28;20034;-58
2022/04/27 01:43:24;;;;;;;3.25;1.80;;;;;;;10.98;67.02;99073.16;4965535;28;20031;-58
2022/04/27 01:45:53;;;;;;;2.60;1.90;;;;;;;11.01;66.51;99057.50;4974054;28;20022;-58
2022/04/27 01:48:19;;;;;;;2.50;1.77;;;;;;;11.11;66.67;99081.38;4970706;28;20037;-59
2022/04/27 01:50:45;;;;;;;5.65;2.10;;;;;;;11.12;66.69;99071.88;4973947;28;20057;-59
2022/04/27 01:55:55;;;;;;;4.82;2.10;;;;;;;11.00;67.05;99088.66;4971540;28;20043;-58
2022/04/27 01:58:22;;;;;;;3.28;2.15;;;;;;;10.98;66.94;99085.28;4973422;28;20022;-59
2022/04/27 02:00:48;;;;;;;3.28;2.03;;;;;;;10.98;67.28;99075.75;4973569;28;20031;-58
2022/04/27 02:03:15;;;;;;;2.65;1.95;;;;;;;10.96;67.61;99082.75;4972878;28;20022;-59
2022/04/27 02:05:41;;;;;;;3.38;2.97;;;;;;;11.00;67.38;99078.28;4972050;28;20057;-59
2022/04/27 02:08:07;;;;;;;2.83;2.10;;;;;;;10.97;67.62;99081.84;4972136;28;20459;-58
2022/04/27 02:10:34;;;;;;;3.13;2.20;;;;;;;10.90;67.11;99087.28;4971803;28;20125;-58
2022/04/27 02:13:05;;;;;;;3.58;2.20;;;;;;;10.82;67.47;99085.78;4972039;28;20105;-58
2022/04/27 02:15:31;;;;;;;2.38;1.88;;;;;;;10.88;67.71;99088.16;4973776;28;20030;-58
2022/04/27 02:17:57;;;;;;;3.22;1.92;;;;;;;10.93;67.59;99089.75;4983206;28;20034;-58
2022/04/27 02:20:23;;;;;;;2.92;1.90;;;;;;;10.91;67.61;99088.97;4993044;28;20018;-58
2022/04/27 02:22:52;;;;;;;4.75;2.45;;;;;;;10.76;68.70;99090.31;4991122;28;20046;-58
2022/04/27 02:25:18;;;;;;;4.28;2.70;;;;;;;10.74;68.12;99087.75;4973415;28;20085;-58
2022/04/27 02:27:45;;;;;;;6.18;2.15;;;;;;;10.81;68.55;99098.78;4964782;28;20428;-60
2022/04/27 02:30:12;;;;;;;2.38;2.10;;;;;;;10.78;69.11;99102.31;4969195;28;20437;-58
2022/04/27 02:32:38;;;;;;;2.35;1.98;;;;;;;10.77;68.74;99100.59;4970877;28;20042;-60
2022/04/27 02:35:05;;;;;;;2.60;2.40;;;;;;;10.68;68.52;99108.69;4985356;28;20029;-59
2022/04/27 02:37:30;;;;;;;4.25;2.10;;;;;;;10.77;68.42;99108.38;4954334;29;20048;-58
2022/04/27 02:39:57;;;;;;;2.85;2.15;;;;;;;10.70;68.92;99094.81;4972924;28;20600;-59
2022/04/27 02:42:23;;;;;;;2.30;2.10;;;;;;;10.54;69.27;99114.28;4984462;28;20472;-58
2022/04/27 02:44:49;;;;;;;1.85;1.75;;;;;;;10.59;68.67;99112.41;4973421;28;20063;-59
2022/04/27 02:47:15;;;;;;;2.92;2.28;;;;;;;10.65;69.29;99113.97;4978534;28;20093;-59
2022/04/27 02:52:24;;;;;;;4.35;2.50;;;;;;;10.58;69.09;99128.00;4954244;29;20041;-58
2022/04/27 02:54:50;;;;;;;3.65;2.10;;;;;;;10.58;69.40;99130.59;4971977;28;20035;-58
2022/04/27 02:57:16;;;;;;;3.30;2.38;;;;;;;10.65;69.53;99129.50;4952692;29;20035;-58
2022/04/27 02:59:43;;;;;;;2.60;2.40;;;;;;;10.59;69.70;99134.84;4971246;28;20034;-59
2022/04/27 03:02:09;;;;;;;3.40;2.42;;;;;;;10.64;70.22;99132.97;4984286;28;20023;-58
2022/04/27 03:04:34;;;;;;;3.33;2.25;;;;;;;10.61;70.04;99133.91;4956077;28;20459;-58
2022/04/27 03:07:00;;;;;;;3.67;2.30;;;;;;;10.67;69.48;99138.06;4992352;28;20046;-58
2022/04/27 03:09:26;;;;;;;3.58;2.35;;;;;;;10.75;69.75;99138.69;4963807;28;20405;-59
2022/04/27 03:11:55;;;;;;;3.63;2.50;;;;;;;10.69;69.73;99137.13;4973824;28;20105;-58
2022/04/27 03:14:21;;;;;;;3.88;2.33;;;;;;;10.69;69.46;99118.16;4980960;28;20034;-58
2022/04/27 03:16:48;;;;;;;2.97;2.17;;;;;;;10.83;69.29;99135.84;4956122;28;20827;-58
2022/04/27 03:19:14;;;;;;;3.58;2.65;;;;;;;10.85;69.43;99121.94;4992706;28;20391;-59
2022/04/27 03:21:40;;;;;;;2.42;2.10;;;;;;;10.90;69.86;99123.53;4974985;28;20088;-59
2022/04/27 03:24:06;;;;;;;3.35;2.38;;;;;;;10.92;69.50;99135.56;4963456;28;20027;-59
2022/04/27 03:26:32;;;;;;;5.03;2.63;;;;;;;10.96;69.16;99128.53;4972881;28;20093;-59
2022/04/27 03:28:58;;;;;;;4.22;2.72;;;;;;;10.96;69.25;99126.78;4959159;28;20031;-59
2022/04/27 03:31:23;;;;;;;3.75;2.70;;;;;;;10.96;69.41;99123.34;4976935;28;20030;-58
2022/04/27 03:33:49;;;;;;;2.92;2.60;;;;;;;10.92;69.13;99134.72;4976394;28;20385;-59
2022/04/27 03:36:14;;;;;;;4.13;2.75;;;;;;;10.94;69.44;99131.16;4976391;28;20505;-59
2022/04/27 03:38:42;;;;;;;3.63;3.03;;;;;;;10.95;69.27;99132.03;4984511;28;20026;-60
2022/04/27 03:41:09;;;;;;;3.03;2.58;;;;;;;10.96;69.17;99125.94;4987981;28;20477;-59
2022/04/27 03:43:34;;;;;;;2.50;2.28;;;;;;;11.00;69.40;99140.47;4969476;28;20488;-59
2022/04/27 03:46:00;;;;;;;3.35;2.60;;;;;;;11.01;69.62;99157.72;4976494;28;20101;-58
2022/04/27 03:48:26;;;;;;;4.45;2.47;;;;;;;10.97;68.85;99143.19;4990517;28;20399;-59
2022/04/27 03:50:52;;;;;;;7.18;3.15;;;;;;;10.92;69.63;99158.03;4976373;28;20071;-59
2022/04/27 03:53:17;;;;;;;3.45;2.55;;;;;;;10.90;69.20;99152.88;4962293;28;20041;-60
2022/04/27 03:55:43;;;;;;;6.95;2.80;;;;;;;11.05;69.21;99143.78;4976228;28;20069;-60
2022/04/27 03:58:09;;;;;;;2.53;2.33;;;;;;;11.04;69.31;99150.72;4975694;28;20062;-59
2022/04/27 04:00:35;;;;;;;2.92;2.40;;;;;;;11.11;68.66;99158.28;4975762;28;20038;-60
2022/04/27 04:03:02;;;;;;;5.32;2.53;;;;;;;11.05;69.16;99155.00;4975551;28;20042;-60
2022/04/27 04:05:28;;;;;;;4.43;2.72;;;;;;;11.17;68.84;99153.75;4975644;28;20054;-60
2022/04/27 04:07:54;;;;;;;2.65;2.30;;;;;;;11.16;69.35;99161.56;4975254;28;20668;-61
2022/04/27 04:10:19;;;;;;;3.17;2.53;;;;;;;11.25;68.79;99155.25;4975869;28;20094;-61
2022/04/27 04:12:45;;;;;;;3.17;2.53;;;;;;;11.25;68.97;99160.44;4975871;28;20073;-61
2022/04/27 04:15:12;;;;;;;5.20;2.75;;;;;;;11.20;68.88;99153.66;4975756;28;20392;-60
2022/04/27 04:17:40;;;;;;;5.10;2.70;;;;;;;11.29;68.36;99147.31;4975559;28;20147;-61
2022/04/27 04:20:07;;;;;;;6.10;2.47;;;;;;;11.23;69.06;99147.53;4978686;28;20118;-61
2022/04/27 04:22:33;;;;;;;6.30;2.45;;;;;;;11.37;68.54;99157.41;4994355;28;20033;-61
2022/04/27 04:30:27;;;;;;;7.13;2.60;;;;;;;11.61;67.66;99149.72;4988082;28;20034;-61
2022/04/27 04:32:52;;;;;;;4.03;2.60;;;;;;;11.62;67.76;99148.84;4975951;28;20023;-61
2022/04/27 04:35:18;;;;;;;3.10;2.42;;;;;;;11.81;66.73;99157.66;4961063;28;20110;-61
2022/04/27 04:37:44;;;;;;;4.13;2.00;;;;;;;11.86;66.15;99150.56;4975072;28;20026;-61
2022/04/27 04:40:10;;;;;;;6.65;2.70;;;;;;;11.86;66.66;99157.50;4974358;28;20463;-60
2022/04/27 04:42:37;;;;;;;7.93;2.80;;;;;;;12.04;65.87;99159.47;4969899;28;20031;-59
2022/04/27 04:45:03;;;;;;;2.47;2.28;;;;;;;12.06;65.07;99143.84;4955399;29;20039;-60
2022/04/27 04:47:28;;;;;;;7.15;2.78;;;;;;;12.23;64.51;99149.25;4972260;28;20022;-60
2022/04/27 04:49:54;;;;;;;2.83;2.05;;;;;;;12.35;64.50;99155.75;4973884;28;20086;-61
2022/04/27 04:52:20;;;;;;;9.23;2.25;;;;;;;12.56;64.09;99154.09;4973761;28;20041;-57
2022/04/27 04:54:45;;;;;;;8.63;2.55;;;;;;;12.83;62.33;99148.72;4974738;28;20047;-59
2022/04/27 04:57:11;;;;;;;11.07;2.35;;;;;;;13.52;61.12;99149.44;4974646;28;20030;-60
2022/04/27 04:59:37;;;;;;;4.50;2.47;;;;;;;13.83;58.92;99153.34;4974897;28;20523;-61
2022/04/27 05:02:02;;;;;;;3.72;1.92;;;;;;;14.41;57.85;99150.75;4974765;28;20477;-60
2022/04/27 05:04:28;;;;;;;4.03;1.70;;;;;;;15.09;55.11;99146.72;4974335;28;20062;-59
2022/04/27 05:06:53;;;;;;;4.00;1.77;;;;;;;15.18;54.85;99152.34;4973494;28;20031;-61
2022/04/27 05:09:19;;;;;;;2.20;1.85;;;;;;;15.70;52.63;99145.41;4968792;28;20480;-61
2022/04/27 05:11:44;;;;;;;3.17;1.85;;;;;;;16.16;50.84;99156.13;4973003;28;20495;-61
2022/04/27 05:14:10;;;;;;;4.38;2.00;;;;;;;15.64;51.16;99156.19;4955261;28;20051;-57
2022/04/27 05:16:36;;;;;;;6.43;2.33;;;;;;;15.92;52.41;99157.41;4973654;28;20045;-59
2022/04/27 05:19:03;;;;;;;7.15;2.33;;;;;;;16.27;51.13;99159.94;4973201;28;20054;-59
2022/04/27 05:21:29;;;;;;;5.50;1.83;;;;;;;16.28;50.59;99170.28;4973642;28;20019;-60
2022/04/27 05:23:55;;;;;;;6.28;1.80;;;;;;;15.96;49.63;99169.38;4970315;28;20110;-60
2022/04/27 05:26:21;;;;;;;4.22;1.65;;;;;;;15.74;50.96;99164.41;4973669;28;20475;-59
2022/04/27 05:34:15;;;;;;;4.43;1.42;;;;;;;15.82;48.16;99160.50;4954351;29;20068;-59
2022/04/27 05:36:41;;;;;;;4.50;1.42;;;;;;;15.81;48.12;99171.03;4969325;28;20476;-59
2022/04/27 05:39:06;;;;;;;2.05;1.52;;;;;;;15.94;47.91;99169.44;4973389;28;20035;-58
2022/04/27 05:41:32;;;;;;;2.53;1.60;;;;;;;16.02;47.03;99169.06;4972429;28;20027;-59
2022/04/27 05:43:57;;;;;;;2.65;1.50;;;;;;;15.79;47.03;99162.41;4971662;28;20381;-59
2022/04/27 05:46:23;;;;;;;1.75;1.60;;;;;;;15.91;48.15;99172.22;4971653;28;20035;-59
2022/04/27 05:48:49;;;;;;;3.72;1.63;;;;;;;15.58;48.06;99170.38;4971635;28;20033;-58
2022/04/27 05:51:15;;;;;;;3.08;1.65;;;;;;;15.61;47.87;99177.22;4973037;28;20031;-59
2022/04/27 05:53:41;;;;;;;6.25;1.80;;;;;;;15.68;47.82;99181.22;4975352;28;20023;-60
2022/04/27 05:56:07;;;;;;;4.78;2.00;;;;;;;16.00;46.65;99181.34;4973005;28;20042;-59
2022/04/27 05:58:33;;;;;;;3.92;1.80;;;;;;;16.14;46.09;99173.63;4973401;28;20138;-59
2022/04/27 06:00:59;;;;;;;3.40;1.90;;;;;;;16.15;45.93;99179.72;4971787;28;20148;-59
2022/04/27 06:03:25;;;;;;;3.97;1.90;;;;;;;16.08;45.83;99183.59;4973118;28;20469;-59
2022/04/27 06:05:50;;;;;;;5.78;2.38;;;;;;;16.48;46.08;99181.47;4972885;28;20078;-60
2022/04/27 06:08:16;;;;;;;3.85;2.05;;;;;;;16.41;45.37;99175.72;4972356;28;20109;-59
2022/04/27 06:10:41;;;;;;;3.72;1.60;;;;;;;16.64;43.47;99177.06;4973080;28;20479;-59
2022/04/27 06:13:07;;;;;;;3.33;1.90;;;;;;;16.74;42.65;99180.03;4972793;28;20391;-59
2022/04/27 06:15:33;;;;;;;3.08;1.60;;;;;;;16.46;43.04;99185.91;4954932;28;20516;-59
2022/04/27 06:17:58;;;;;;;3.33;1.92;;;;;;;16.80;42.11;99179.69;4972918;28;20481;-59
2022/04/27 06:20:24;;;;;;;1.67;1.58;;;;;;;16.52;41.42;99189.03;4977529;28;20022;-60
2022/04/27 06:22:49;;;;;;;9.43;2.17;;;;;;;17.14;42.17;99190.06;4992297;28;20048;-59
2022/04/27 06:25:15;;;;;;;5.72;2.10;;;;;;;17.51;41.55;99186.16;4972925;28;20030;-58
2022/04/27 06:27:41;;;;;;;3.05;2.20;;;;;;;17.34;41.34;99189.75;4964621;28;20078;-58
2022/04/27 06:30:07;;;;;;;3.28;1.92;;;;;;;18.01;41.08;99183.28;4962397;28;20062;-59
2022/04/27 06:32:33;;;;;;;4.85;1.73;;;;;;;18.33;40.24;99198.84;4972322;28;20047;-59
2022/04/27 06:34:59;;;;;;;18.40;2.47;;;;;;;18.19;40.18;99195.28;4972310;28;20030;-58
2022/04/27 06:37:26;;;;;;;2.85;1.90;;;;;;;18.27;39.50;99198.28;4972478;28;20023;-59
2022/04/27 06:39:51;;;;;;;4.18;1.90;;;;;;;18.19;39.30;99199.69;4972350;28;20033;-60
2022/04/27 06:42:21;;;;;;;2.15;1.80;;;;;;;18.42;39.32;99203.53;4972399;28;20034;-59
2022/04/27 06:44:48;;;;;;;8.45;1.80;;;;;;;18.34;38.95;99211.88;4972737;28;20446;-59
2022/04/27 06:47:13;;;;;;;2.13;1.70;;;;;;;18.59;39.16;99208.56;4973026;28;20023;-59
2022/04/27 06:49:39;;;;;;;4.20;2.08;;;;;;;18.56;40.18;99213.16;4972653;28;20057;-59
2022/04/27 06:52:05;;;;;;;5.60;2.00;;;;;;;18.43;39.65;99213.91;4973609;28;20073;-59
2022/04/27 06:54:31;;;;;;;7.50;2.20;;;;;;;18.29;40.02;99211.31;4972703;28;20027;-59
2022/04/27 06:56:57;;;;;;;4.80;2.10;;;;;;;17.86;40.40;99206.00;4972963;28;20101;-59
2022/04/27 06:59:23;;;;;;;2.97;1.75;;;;;;;17.97;38.94;99208.84;4973021;28;20027;-59
2022/04/27 07:01:49;;;;;;;5.55;2.00;;;;;;;17.88;39.66;99211.97;4972882;28;20532;-59
2022/04/27 07:04:15;;;;;;;5.40;1.60;;;;;;;17.99;39.47;99203.53;4974228;28;20463;-60
2022/04/27 07:06:40;;;;;;;4.30;1.80;;;;;;;18.05;39.89;99203.16;4975838;28;20109;-59
2022/04/27 07:09:13;;;;;;;7.30;2.10;;;;;;;18.60;38.61;99212.88;4976134;28;20085;-59
2022/04/27 07:11:41;;;;;;;5.28;1.90;;;;;;;19.25;38.71;99208.81;4975930;28;20494;-59
2022/04/27 07:14:08;;;;;;;6.55;1.60;;;;;;;19.70;36.90;99207.66;4973335;28;20270;-59
2022/04/27 07:16:34;;;;;;;2.92;1.70;;;;;;;19.66;37.12;99210.47;4975714;28;20333;-59
2022/04/27 07:18:59;;;;;;;6.03;1.90;;;;;;;19.87;36.24;99209.19;4975419;28;20482;-58
2022/04/27 07:21:25;;;;;;;3.35;1.90;;;;;;;19.52;37.24;99207.91;4977759;28;20022;-59
2022/04/27 07:23:51;;;;;;;2.90;2.00;;;;;;;19.74;37.06;99216.97;4975075;28;20122;-59
2022/04/27 07:26:16;;;;;;;4.70;1.60;;;;;;;19.51;37.54;99221.16;4975327;28;20034;-59
2022/04/27 07:28:42;;;;;;;3.90;1.90;;;;;;;18.89;37.25;99219.88;4975153;28;20022;-59
2022/04/27 07:31:08;;;;;;;3.25;2.05;;;;;;;18.92;36.66;99225.75;4975778;28;20035;-59
2022/04/27 07:33:34;;;;;;;4.03;2.15;;;;;;;18.57;37.99;99235.81;4975874;28;20030;-59
2022/04/27 07:36:01;;;;;;;3.13;1.98;;;;;;;18.16;38.69;99232.16;4974041;28;20070;-60
2022/04/27 07:38:29;;;;;;;5.60;2.40;;;;;;;18.14;38.89;99228.78;4975174;28;20035;-59
2022/04/27 07:40:54;;;;;;;3.00;2.10;;;;;;;17.77;39.70;99226.56;4956743;28;20114;-59
2022/04/27 07:43:20;;;;;;;5.95;2.45;;;;;;;17.91;40.12;99233.66;4975364;28;20027;-59
2022/04/27 07:45:46;;;;;;;4.68;2.00;;;;;;;17.63;39.42;99229.16;4973815;28;20050;-59
2022/04/27 07:48:11;;;;;;;2.70;2.10;;;;;;;17.49;40.26;99231.72;4977233;28;20030;-58
2022/04/27 07:50:37;;;;;;;3.45;2.15;;;;;;;17.64;40.51;99229.97;4995046;28;20038;-58
2022/04/27 07:53:03;;;;;;;10.27;2.20;;;;;;;17.93;40.65;99230.94;4981993;28;20023;-59
2022/04/27 07:55:29;;;;;;;4.15;2.03;;;;;;;17.92;39.97;99234.47;4975630;28;20503;-58
2022/04/27 07:57:55;;;;;;;2.15;1.95;;;;;;;17.89;39.42;99230.22;4975208;28;20492;-58
2022/04/27 08:00:21;;;;;;;11.20;2.63;;;;;;;17.92;38.35;99234.47;4975234;28;20043;-58
2022/04/27 08:02:47;;;;;;;4.13;1.80;;;;;;;17.79;38.34;99233.50;4982860;28;20460;-58
2022/04/27 08:05:15;;;;;;;2.72;1.90;;;;;;;17.69;38.01;99212.22;4989719;28;20082;-58
2022/04/27 08:07:48;;;;;;;2.33;1.80;;;;;;;17.64;38.41;99229.97;4956181;29;20044;-58
2022/04/27 08:10:19;;;;;;;3.58;2.10;;;;;;;17.65;38.53;99232.50;4974777;28;20833;-58
2022/04/27 08:12:47;;;;;;;2.47;1.80;;;;;;;17.23;38.39;99226.19;4975452;28;20023;-59
2022/04/27 08:15:21;;;;;;;3.15;1.90;;;;;;;17.18;39.01;99170.66;4973927;28;20034;-58
2022/04/27 08:17:56;;;;;;;3.70;2.17;;;;;;;17.68;39.12;99221.84;4974955;28;20121;-59
2022/04/27 08:23:21;;;;;;;2.72;2.05;;;;;;;17.32;38.13;99225.66;4959016;28;20488;-58
2022/04/27 08:25:48;;;;;;;1.90;1.80;;;;;;;16.99;38.77;99216.16;4975007;28;20035;-58
2022/04/27 08:28:14;;;;;;;4.93;1.90;;;;;;;16.90;40.20;99220.13;4980733;28;20026;-58
2022/04/27 08:30:42;;;;;;;2.63;1.92;;;;;;;16.64;39.27;99221.50;4974874;28;20030;-59
2022/04/27 08:33:08;;;;;;;3.33;1.92;;;;;;;16.71;39.96;99217.63;4974963;28;20086;-59
2022/04/27 08:35:34;;;;;;;4.25;2.50;;;;;;;16.40;39.78;99223.66;4975293;28;20030;-59
2022/04/27 08:38:01;;;;;;;5.00;2.30;;;;;;;16.51;40.20;99223.13;4974846;28;20081;-58
2022/04/27 08:40:28;;;;;;;3.97;2.20;;;;;;;16.52;40.38;99230.03;4974830;28;20085;-58
2022/04/27 08:42:54;;;;;;;7.53;2.35;;;;;;;16.46;41.14;99235.56;4974406;28;20038;-60
2022/04/27 08:45:21;;;;;;;2.80;2.17;;;;;;;16.26;40.91;99224.41;4975083;28;20713;-59
2022/04/27 08:47:48;;;;;;;2.53;2.10;;;;;;;16.26;42.64;99231.41;4974692;28;20026;-59
2022/04/27 08:50:20;;;;;;;8.38;2.40;;;;;;;15.75;41.99;99186.94;4974748;28;20027;-59
2022/04/27 08:52:46;;;;;;;4.70;2.50;;;;;;;15.79;42.00;99238.13;4974969;28;20026;-59
2022/04/27 08:55:13;;;;;;;3.88;2.20;;;;;;;15.79;41.68;99238.13;4974541;28;20042;-59
2022/04/27 08:57:40;;;;;;;2.42;2.20;;;;;;;15.41;41.93;99236.47;4974774;28;20042;-59
2022/04/27 09:00:08;;;;;;;4.13;2.40;;;;;;;15.23;42.49;99201.66;4974361;28;20034;-58
2022/04/27 09:02:35;;;;;;;5.22;1.70;;;;;;;15.27;42.40;99246.72;4974514;28;20441;-58
2022/04/27 09:05:24;;;;;;;8.75;2.50;;;;;;;15.29;44.30;99239.66;4973807;28;20047;-59
2022/04/27 09:07:52;;;;;;;5.47;2.25;;;;;;;15.15;44.59;99228.13;4967023;28;20055;-59
2022/04/27 09:10:21;;;;;;;5.53;2.00;;;;;;;14.80;44.16;99195.91;4989344;28;20054;-59
2022/04/27 09:12:57;;;;;;;5.97;2.50;;;;;;;14.86;44.89;99198.22;4953280;29;20473;-59
2022/04/27 09:15:25;;;;;;;11.85;2.65;;;;;;;14.93;45.38;99254.38;4966485;28;20027;-59
2022/04/27 09:20:54;;;;;;;8.50;2.65;;;;;;;14.90;46.61;99257.13;4979014;28;20034;-59
2022/04/27 09:23:25;;;;;;;5.03;2.50;;;;;;;14.59;46.93;99261.13;4990523;28;20035;-59
2022/04/27 09:25:56;;;;;;;5.10;2.30;;;;;;;14.16;46.10;99210.91;4973452;28;20541;-59
2022/04/27 09:28:23;;;;;;;4.07;2.65;;;;;;;14.50;46.50;99256.31;4979164;28;20454;-58
2022/04/27 09:30:50;;;;;;;3.45;2.00;;;;;;;14.60;46.96;99265.41;4973632;28;20030;-58
2022/04/27 09:33:29;;;;;;;5.63;3.13;;;;;;;14.70;47.61;99254.59;4973779;28;20027;-59
2022/04/27 09:35:56;;;;;;;3.95;2.28;;;;;;;14.72;46.05;99268.41;4973897;28;20085;-59
2022/04/27 09:38:22;;;;;;;3.67;2.50;;;;;;;14.92;45.92;99268.34;4973407;28;20152;-59
2022/04/27 09:40:50;;;;;;;4.60;2.80;;;;;;;14.96;46.72;99287.28;4973604;28;20034;-59
2022/04/27 09:43:17;;;;;;;3.33;2.42;;;;;;;15.06;45.80;99265.06;4973400;28;20045;-59
2022/04/27 09:45:43;;;;;;;3.53;2.35;;;;;;;14.95;46.10;99269.94;4973477;28;20065;-60
2022/04/27 09:48:17;;;;;;;6.53;2.50;;;;;;;15.22;46.31;99262.63;4973421;28;20026;-59
2022/04/27 09:50:54;;;;;;;5.35;2.40;;;;;;;15.26;45.25;99265.91;4979323;28;20045;-59
2022/04/27 09:53:20;;;;;;;4.28;2.42;;;;;;;15.31;47.70;99269.16;4969887;28;20481;-59
2022/04/27 09:55:48;;;;;;;5.20;2.30;;;;;;;15.09;45.62;99215.41;4973604;28;20031;-59
2022/04/27 09:58:16;;;;;;;6.70;2.95;;;;;;;15.50;44.96;99276.94;4965431;28;20106;-58
2022/04/27 10:00:43;;;;;;;5.80;2.63;;;;;;;15.43;44.58;99270.31;4973325;28;20555;-58
2022/04/27 10:03:18;;;;;;;2.70;2.03;;;;;;;15.42;43.23;99268.63;4973149;28;20468;-59
2022/04/27 10:05:45;;;;;;;4.47;2.45;;;;;;;15.31;44.35;99271.75;4973460;28;20050;-59
2022/04/27 10:08:12;;;;;;;2.35;2.10;;;;;;;15.26;44.80;99271.97;4973324;28;20104;-59
2022/04/27 10:10:42;;;;;;;5.32;2.17;;;;;;;15.37;42.55;99271.47;4972967;28;20031;-59
2022/04/27 10:13:12;;;;;;;3.65;2.22;;;;;;;15.32;41.33;99279.50;4972323;28;20039;-58
2022/04/27 10:15:43;;;;;;;4.85;2.05;;;;;;;15.30;41.31;99257.84;4955831;28;20139;-59
2022/04/27 10:18:16;;;;;;;4.45;1.95;;;;;;;15.25;41.94;99265.06;4973282;28;20542;-59
2022/04/27 10:20:43;;;;;;;8.55;2.60;;;;;;;15.10;43.01;99273.63;4978677;28;20031;-59
2022/04/27 10:23:28;;;;;;;3.33;2.10;;;;;;;15.39;45.03;99280.06;4991365;28;20045;-58
2022/04/27 10:26:08;;;;;;;4.95;2.70;;;;;;;15.42;44.34;99281.66;4973318;28;20033;-59
2022/04/27 10:28:42;;;;;;;8.25;3.08;;;;;;;15.15;45.64;99280.31;4958230;28;20027;-58
2022/04/27 10:31:08;;;;;;;2.85;2.53;;;;;;;15.33;45.73;99289.03;4981100;28;20050;-58
2022/04/27 10:33:40;;;;;;;5.10;2.90;;;;;;;15.44;46.95;99282.47;4992371;28;20030;-59
2022/04/27 10:36:27;;;;;;;4.47;3.08;;;;;;;15.34;45.67;99292.47;4977701;28;20027;-58
2022/04/27 10:39:11;;;;;;;3.00;2.70;;;;;;;15.25;45.11;99285.06;4974829;28;20081;-58
2022/04/27 10:41:39;;;;;;;4.75;2.58;;;;;;;15.18;45.05;99277.56;4977007;28;20027;-59
2022/04/27 10:44:04;;;;;;;9.10;3.25;;;;;;;15.05;45.60;99283.41;4976882;28;20029;-58
2022/04/27 10:46:41;;;;;;;5.65;2.60;;;;;;;14.79;44.68;99295.88;4976779;28;20047;-58
2022/04/27 10:49:30;;;;;;;7.30;2.88;;;;;;;14.74;45.96;99253.56;4976899;28;20472;-59
2022/04/27 10:52:02;;;;;;;3.08;2.45;;;;;;;15.15;45.90;99287.31;4959554;28;20022;-59
2022/04/27 10:54:32;;;;;;;3.67;2.60;;;;;;;15.10;44.97;99290.09;4976761;28;20102;-59
2022/04/27 10:57:18;;;;;;;5.80;3.13;;;;;;;15.47;45.49;99290.13;4976897;28;20039;-59
2022/04/27 11:00:01;;;;;;;5.30;2.28;;;;;;;15.13;42.13;99257.81;4976866;28;20103;-59
2022/04/27 11:02:44;;;;;;;4.60;2.05;;;;;;;15.41;41.20;99288.66;4976510;28;20097;-59
2022/04/27 11:05:15;;;;;;;4.38;2.33;;;;;;;15.42;41.92;99295.59;4985121;28;20160;-59
2022/04/27 11:07:58;;;;;;;4.57;2.15;;;;;;;15.40;40.46;99288.75;4996065;28;20066;-59
2022/04/27 11:10:25;;;;;;;5.93;2.50;;;;;;;15.39;42.33;99293.13;4996106;28;20041;-59
2022/04/27 11:12:53;;;;;;;5.43;2.35;;;;;;;14.77;42.63;99250.78;4996112;28;20033;-58
2022/04/27 11:15:26;;;;;;;4.13;2.13;;;;;;;14.84;41.73;99254.81;4995840;28;20031;-58
2022/04/27 11:18:02;;;;;;;6.60;2.30;;;;;;;15.15;42.78;99302.94;4996005;28;20053;-59
2022/04/27 11:20:36;;;;;;;5.85;1.92;;;;;;;14.84;41.19;99260.84;4978064;28;20049;-59
2022/04/27 11:23:07;;;;;;;7.07;2.40;;;;;;;14.70;41.60;99258.03;4995905;28;20030;-59
2022/04/27 11:25:39;;;;;;;4.72;2.08;;;;;;;14.81;42.63;99301.88;4995900;28;20026;-58
2022/04/27 11:28:06;;;;;;;8.27;2.63;;;;;;;14.83;43.78;99310.47;4984255;28;20114;-58
2022/04/27 11:30:33;;;;;;;9.55;2.28;;;;;;;14.31;47.10;99311.81;4987325;28;20077;-59
2022/04/27 11:33:01;;;;;;;4.80;2.60;;;;;;;14.34;48.22;99336.91;4995656;28;20034;-59
2022/04/27 11:35:38;;;;;;;7.78;2.63;;;;;;;14.25;51.39;99319.03;4995645;28;20476;-59
2022/04/27 11:38:04;;;;;;;6.22;2.42;;;;;;;14.08;52.07;99337.97;4995684;28;20404;-59
2022/04/27 11:40:36;;;;;;;2.53;2.25;;;;;;;13.90;54.50;99353.44;4995059;28;20467;-59
2022/04/27 11:43:04;;;;;;;4.05;2.40;;;;;;;13.85;54.63;99347.56;5002047;28;20038;-60
2022/04/27 11:45:30;;;;;;;7.05;2.75;;;;;;;13.78;56.94;99351.34;4995201;28;20026;-59
2022/04/27 11:48:09;;;;;;;4.78;2.45;;;;;;;13.66;56.75;99354.44;4995100;28;20065;-59
2022/04/27 11:50:37;;;;;;;6.85;3.20;;;;;;;13.39;56.64;99294.78;4998078;28;20033;-59
2022/04/27 11:53:04;;;;;;;6.38;2.75;;;;;;;13.67;55.69;99350.91;5011531;28;20048;-59
2022/04/27 11:55:31;;;;;;;8.75;3.40;;;;;;;13.64;56.64;99354.50;4994957;28;20034;-59
2022/04/27 11:57:56;;;;;;;7.82;3.05;;;;;;;13.57;56.62;99353.06;4994923;28;20062;-59